sensor_id;sensor_type;location;lat;lon;timestamp;pressure;altitude;pressure_sealevel;temperature;humidity
6833;BME280;3454;42.654;23.378;2023-04-29T00:01:18;63899.06;;;9.15;55.97
6833;BME280;3454;42.654;23.378;2023-04-29T00:03:44;63915.25;;;9.28;55.02
6833;BME280;3454;42.654;23.378;2023-04-29T00:06:09;63921.25;;;9.33;54.60
6833;BME280;3454;42.654;23.378;2023-04-29T00:08:35;63907.59;;;9.21;55.13
6833;BME280;3454;42.654;23.378;2023-04-29T00:11:01;63891.41;;;9.08;55.46
6833;BME280;3454;42.654;23.378;2023-04-29T00:13:27;63889.00;;;9.04;55.68
6833;BME280;3454;42.654;23.378;2023-04-29T00:15:52;63882.44;;;8.98;55.95
6833;BME280;3454;42.654;23.378;2023-04-29T00:18:18;63886.50;;;9.04;56.73
6833;BME280;3454;42.654;23.378;2023-04-29T00:20:43;63890.88;;;9.08;56.61
6833;BME280;3454;42.654;23.378;2023-04-29T00:23:09;63874.47;;;8.93;56.84
6833;BME280;3454;42.654;23.378;2023-04-29T00:25:34;63866.81;;;8.86;56.67
6833;BME280;3454;42.654;23.378;2023-04-29T00:28:00;63869.88;;;8.86;56.76
6833;BME280;3454;42.654;23.378;2023-04-29T00:30:27;63866.28;;;8.85;56.51
6833;BME280;3454;42.654;23.378;2023-04-29T00:32:53;63884.63;;;9.00;57.32
6833;BME280;3454;42.654;23.378;2023-04-29T00:35:19;63887.81;;;9.07;57.15
6833;BME280;3454;42.654;23.378;2023-04-29T00:37:44;63917.44;;;9.30;56.41
6833;BME280;3454;42.654;23.378;2023-04-29T00:40:10;63923.97;;;9.36;54.94
6833;BME280;3454;42.654;23.378;2023-04-29T00:42:37;63909.22;;;9.22;55.92
6833;BME280;3454;42.654;23.378;2023-04-29T00:45:03;63890.31;;;9.07;57.65
6833;BME280;3454;42.654;23.378;2023-04-29T00:47:29;63910.53;;;9.26;57.27
6833;BME280;3454;42.654;23.378;2023-04-29T00:49:54;63932.72;;;9.44;57.92
6833;BME280;3454;42.654;23.378;2023-04-29T00:52:20;63947.16;;;9.60;56.37
6833;BME280;3454;42.654;23.378;2023-04-29T00:54:47;63968.28;;;9.77;56.06
6833;BME280;3454;42.654;23.378;2023-04-29T00:57:13;63958.41;;;9.68;56.48
6833;BME280;3454;42.654;23.378;2023-04-29T00:59:39;63959.75;;;9.71;55.90
6833;BME280;3454;42.654;23.378;2023-04-29T01:02:05;63940.41;;;9.51;56.43
6833;BME280;3454;42.654;23.378;2023-04-29T01:04:30;63944.44;;;9.57;56.64
6833;BME280;3454;42.654;23.378;2023-04-29T01:10:13;63937.31;;;9.51;57.20
6833;BME280;3454;42.654;23.378;2023-04-29T01:15:28;63904.75;;;9.23;59.12
6833;BME280;3454;42.654;23.378;2023-04-29T01:17:59;63913.28;;;9.28;59.04
6833;BME280;3454;42.654;23.378;2023-04-29T01:20:25;63936.56;;;9.48;58.70
6833;BME280;3454;42.654;23.378;2023-04-29T01:22:50;63932.06;;;9.48;58.63
6833;BME280;3454;42.654;23.378;2023-04-29T01:25:16;63942.59;;;9.53;58.68
6833;BME280;3454;42.654;23.378;2023-04-29T01:33:52;63933.50;;;9.47;60.16
6833;BME280;3454;42.654;23.378;2023-04-29T01:36:52;63969.69;;;9.76;59.52
6833;BME280;3454;42.654;23.378;2023-04-29T01:44:46;63924.53;;;9.37;57.18
6833;BME280;3454;42.654;23.378;2023-04-29T01:47:13;63918.53;;;9.31;57.24
6833;BME280;3454;42.654;23.378;2023-04-29T01:49:39;63885.09;;;9.05;56.77
6833;BME280;3454;42.654;23.378;2023-04-29T01:52:05;63842.78;;;8.64;58.33
6833;BME280;3454;42.654;23.378;2023-04-29T01:54:38;63829.69;;;8.52;57.99
6833;BME280;3454;42.654;23.378;2023-04-29T01:57:03;63795.81;;;8.20;59.76
6833;BME280;3454;42.654;23.378;2023-04-29T01:59:30;63767.22;;;7.92;61.26
6833;BME280;3454;42.654;23.378;2023-04-29T02:01:55;63759.56;;;7.85;62.03
6833;BME280;3454;42.654;23.378;2023-04-29T02:04:23;63753.00;;;7.79;62.60
6833;BME280;3454;42.654;23.378;2023-04-29T02:06:49;63734.78;;;7.59;62.79
6833;BME280;3454;42.654;23.378;2023-04-29T02:09:14;63716.66;;;7.47;63.20
6833;BME280;3454;42.654;23.378;2023-04-29T02:11:40;63718.09;;;7.46;63.64
6833;BME280;3454;42.654;23.378;2023-04-29T02:14:05;63712.84;;;7.44;63.96
6833;BME280;3454;42.654;23.378;2023-04-29T02:16:31;63730.84;;;7.60;63.59
6833;BME280;3454;42.654;23.378;2023-04-29T02:19:15;63749.19;;;7.75;64.47
6833;BME280;3454;42.654;23.378;2023-04-29T02:21:40;63754.88;;;7.83;64.25
6833;BME280;3454;42.654;23.378;2023-04-29T02:24:06;63785.75;;;8.09;62.95
6833;BME280;3454;42.654;23.378;2023-04-29T02:26:31;63789.81;;;8.15;62.98
6833;BME280;3454;42.654;23.378;2023-04-29T02:28:58;63807.63;;;8.29;62.11
6833;BME280;3454;42.654;23.378;2023-04-29T02:31:24;63812.75;;;8.36;61.61
6833;BME280;3454;42.654;23.378;2023-04-29T02:33:49;63819.63;;;8.40;61.50
6833;BME280;3454;42.654;23.378;2023-04-29T02:36:15;63804.56;;;8.28;62.10
6833;BME280;3454;42.654;23.378;2023-04-29T02:38:41;63812.22;;;8.35;60.86
6833;BME280;3454;42.654;23.378;2023-04-29T02:41:07;63818.22;;;8.41;62.00
6833;BME280;3454;42.654;23.378;2023-04-29T02:43:32;63839.06;;;8.56;61.03
6833;BME280;3454;42.654;23.378;2023-04-29T02:45:58;63837.66;;;8.57;61.11
6833;BME280;3454;42.654;23.378;2023-04-29T02:48:24;63838.41;;;8.60;61.10
6833;BME280;3454;42.654;23.378;2023-04-29T02:50:49;63860.59;;;8.78;60.30
6833;BME280;3454;42.654;23.378;2023-04-29T02:53:15;63861.34;;;8.81;60.56
6833;BME280;3454;42.654;23.378;2023-04-29T02:55:41;63836.78;;;8.58;61.73
6833;BME280;3454;42.654;23.378;2023-04-29T02:58:07;63829.69;;;8.52;61.88
6833;BME280;3454;42.654;23.378;2023-04-29T03:00:32;63829.69;;;8.52;62.61
6833;BME280;3454;42.654;23.378;2023-04-29T03:02:58;63810.03;;;8.33;63.35
6833;BME280;3454;42.654;23.378;2023-04-29T03:05:23;63791.22;;;8.14;63.07
6833;BME280;3454;42.654;23.378;2023-04-29T03:07:48;63773.22;;;7.97;64.26
6833;BME280;3454;42.654;23.378;2023-04-29T03:10:14;63778.66;;;8.02;65.13
6833;BME280;3454;42.654;23.378;2023-04-29T03:12:39;63783.81;;;8.09;65.44
6833;BME280;3454;42.654;23.378;2023-04-29T03:15:06;63802.38;;;8.26;65.08
6833;BME280;3454;42.654;23.378;2023-04-29T03:17:31;63822.56;;;8.45;64.68
6833;BME280;3454;42.654;23.378;2023-04-29T03:19:58;63837.66;;;8.57;64.38
6833;BME280;3454;42.654;23.378;2023-04-29T03:22:23;63837.31;;;8.59;64.48
6833;BME280;3454;42.654;23.378;2023-04-29T03:24:48;63840.38;;;8.59;65.22
6833;BME280;3454;42.654;23.378;2023-04-29T03:27:14;63838.41;;;8.60;64.84
6833;BME280;3454;42.654;23.378;2023-04-29T03:29:39;63812.22;;;8.35;65.39
6833;BME280;3454;42.654;23.378;2023-04-29T03:32:05;63799.41;;;8.21;67.18
6833;BME280;3454;42.654;23.378;2023-04-29T03:34:30;63812.22;;;8.35;66.99
6833;BME280;3454;42.654;23.378;2023-04-29T03:36:56;63818.53;;;8.39;66.61
6833;BME280;3454;42.654;23.378;2023-04-29T03:39:21;63758.16;;;7.86;68.43
6833;BME280;3454;42.654;23.378;2023-04-29T03:41:47;63720.81;;;7.49;69.10
6833;BME280;3454;42.654;23.378;2023-04-29T03:44:13;63732.59;;;7.57;69.50
6833;BME280;3454;42.654;23.378;2023-04-29T03:46:38;63760.09;;;7.85;68.63
6833;BME280;3454;42.654;23.378;2023-04-29T03:49:03;63775.94;;;8.00;69.29
6833;BME280;3454;42.654;23.378;2023-04-29T03:51:29;63802.69;;;8.24;68.29
6833;BME280;3454;42.654;23.378;2023-04-29T03:53:55;63832.94;;;8.55;68.18
6833;BME280;3454;42.654;23.378;2023-04-29T03:56:22;63846.06;;;8.67;67.81
6833;BME280;3454;42.654;23.378;2023-04-29T03:58:47;63838.75;;;8.58;66.73
6833;BME280;3454;42.654;23.378;2023-04-29T04:01:13;63856.44;;;8.76;66.28
6833;BME280;3454;42.654;23.378;2023-04-29T04:03:39;63870.09;;;8.89;65.09
6833;BME280;3454;42.654;23.378;2023-04-29T04:06:05;63845.31;;;8.64;66.05
6833;BME280;3454;42.654;23.378;2023-04-29T04:08:30;63846.59;;;8.67;64.73
6833;BME280;3454;42.654;23.378;2023-04-29T04:10:56;63848.56;;;8.67;63.79
6833;BME280;3454;42.654;23.378;2023-04-29T04:13:27;63819.09;;;8.39;62.14
6833;BME280;3454;42.654;23.378;2023-04-29T04:15:53;63785.22;;;8.08;63.57
6833;BME280;3454;42.654;23.378;2023-04-29T04:18:18;63774.84;;;7.99;64.06
6833;BME280;3454;42.654;23.378;2023-04-29T04:20:43;63788.72;;;8.14;63.20
6833;BME280;3454;42.654;23.378;2023-04-29T04:23:09;63783.25;;;8.09;62.46
6833;BME280;3454;42.654;23.378;2023-04-29T04:25:34;63766.88;;;7.94;63.84
6833;BME280;3454;42.654;23.378;2023-04-29T04:28:00;63774.50;;;8.01;63.47
6833;BME280;3454;42.654;23.378;2023-04-29T04:30:26;63781.94;;;8.05;63.54
6833;BME280;3454;42.654;23.378;2023-04-29T04:32:51;63786.31;;;8.09;63.10
6833;BME280;3454;42.654;23.378;2023-04-29T04:35:17;63809.25;;;8.30;65.27
6833;BME280;3454;42.654;23.378;2023-04-29T04:37:42;63818.22;;;8.41;63.52
6833;BME280;3454;42.654;23.378;2023-04-29T04:40:08;63827.50;;;8.50;63.88
6833;BME280;3454;42.654;23.378;2023-04-29T04:42:35;63855.91;;;8.76;62.79
6833;BME280;3454;42.654;23.378;2023-04-29T04:45:00;63869.34;;;8.86;63.57
6833;BME280;3454;42.654;23.378;2023-04-29T04:47:27;63865.19;;;8.84;63.23
6833;BME280;3454;42.654;23.378;2023-04-29T04:49:52;63877.19;;;8.95;62.54
6833;BME280;3454;42.654;23.378;2023-04-29T04:52:21;63859.50;;;8.77;63.63
6833;BME280;3454;42.654;23.378;2023-04-29T04:54:46;63805.97;;;8.27;64.16
6833;BME280;3454;42.654;23.378;2023-04-29T04:57:12;63837.31;;;8.59;63.74
6833;BME280;3454;42.654;23.378;2023-04-29T04:59:38;63852.94;;;8.71;63.39
6833;BME280;3454;42.654;23.378;2023-04-29T05:02:03;63860.81;;;8.80;63.36
6833;BME280;3454;42.654;23.378;2023-04-29T05:04:29;63884.84;;;9.02;62.42
6833;BME280;3454;42.654;23.378;2023-04-29T05:06:54;63881.78;;;9.02;62.29
6833;BME280;3454;42.654;23.378;2023-04-29T05:09:20;63899.94;;;9.14;62.45
6833;BME280;3454;42.654;23.378;2023-04-29T05:11:45;63874.69;;;8.95;63.10
6833;BME280;3454;42.654;23.378;2023-04-29T05:14:11;63887.59;;;9.05;62.75
6833;BME280;3454;42.654;23.378;2023-04-29T05:16:36;63905.63;;;9.21;63.08
6833;BME280;3454;42.654;23.378;2023-04-29T05:19:02;63911.41;;;9.24;64.37
6833;BME280;3454;42.654;23.378;2023-04-29T05:21:27;63945.84;;;9.56;63.52
6833;BME280;3454;42.654;23.378;2023-04-29T05:23:53;63936.22;;;9.50;62.76
6833;BME280;3454;42.654;23.378;2023-04-29T05:26:18;63915.25;;;9.28;62.93
6833;BME280;3454;42.654;23.378;2023-04-29T05:28:43;63919.84;;;9.35;63.99
6833;BME280;3454;42.654;23.378;2023-04-29T05:31:09;63924.53;;;9.37;64.13
6833;BME280;3454;42.654;23.378;2023-04-29T05:33:35;63928.03;;;9.42;64.53
6833;BME280;3454;42.654;23.378;2023-04-29T05:36:00;63924.53;;;9.37;63.24
6833;BME280;3454;42.654;23.378;2023-04-29T05:38:26;63927.28;;;9.39;64.27
6833;BME280;3454;42.654;23.378;2023-04-29T05:40:54;63936.56;;;9.48;64.22
6833;BME280;3454;42.654;23.378;2023-04-29T05:43:20;63946.41;;;9.57;63.93
6833;BME280;3454;42.654;23.378;2023-04-29T05:45:46;63932.41;;;9.46;63.26
6833;BME280;3454;42.654;23.378;2023-04-29T05:48:11;63970.13;;;9.81;63.88
6833;BME280;3454;42.654;23.378;2023-04-29T05:50:37;63978.66;;;9.86;63.13
6833;BME280;3454;42.654;23.378;2023-04-29T05:53:02;63959.41;;;9.73;61.89
6833;BME280;3454;42.654;23.378;2023-04-29T05:55:29;63960.50;;;9.74;62.55
6833;BME280;3454;42.654;23.378;2023-04-29T05:57:54;63965.53;;;9.74;64.05
6833;BME280;3454;42.654;23.378;2023-04-29T06:00:20;63961.38;;;9.73;63.97
6833;BME280;3454;42.654;23.378;2023-04-29T06:02:46;63955.16;;;9.65;65.10
6833;BME280;3454;42.654;23.378;2023-04-29T06:05:11;63978.00;;;9.90;64.96
6833;BME280;3454;42.654;23.378;2023-04-29T06:07:38;63946.63;;;9.59;66.67
6833;BME280;3454;42.654;23.378;2023-04-29T06:10:04;63914.34;;;9.29;67.31
6833;BME280;3454;42.654;23.378;2023-04-29T06:12:29;63946.63;;;9.59;65.97
6833;BME280;3454;42.654;23.378;2023-04-29T06:14:55;63962.69;;;9.76;65.61
6833;BME280;3454;42.654;23.378;2023-04-29T06:17:20;63993.63;;;10.02;66.25
6833;BME280;3454;42.654;23.378;2023-04-29T06:19:46;64024.31;;;10.31;64.66
6833;BME280;3454;42.654;23.378;2023-04-29T06:22:11;64010.09;;;10.18;63.75
6833;BME280;3454;42.654;23.378;2023-04-29T06:24:37;64029.00;;;10.33;63.93
6833;BME280;3454;42.654;23.378;2023-04-29T06:27:02;64060.66;;;10.66;62.93
6833;BME280;3454;42.654;23.378;2023-04-29T06:29:28;64073.00;;;10.75;62.30
6833;BME280;3454;42.654;23.378;2023-04-29T06:31:54;64027.03;;;10.33;62.52
6833;BME280;3454;42.654;23.378;2023-04-29T06:34:20;64008.97;;;10.17;62.58
6833;BME280;3454;42.654;23.378;2023-04-29T06:36:45;64048.16;;;10.50;61.53
6833;BME280;3454;42.654;23.378;2023-04-29T06:39:11;64058.47;;;10.64;61.97
6833;BME280;3454;42.654;23.378;2023-04-29T06:41:36;64078.16;;;10.82;61.51
6833;BME280;3454;42.654;23.378;2023-04-29T06:44:02;64112.75;;;11.10;66.80
6833;BME280;3454;42.654;23.378;2023-04-29T06:46:27;64122.81;;;11.21;60.54
6833;BME280;3454;42.654;23.378;2023-04-29T06:48:53;64106.97;;;11.07;60.22
6833;BME280;3454;42.654;23.378;2023-04-29T06:51:19;64066.44;;;10.69;61.13
6833;BME280;3454;42.654;23.378;2023-04-29T06:53:44;64073.00;;;10.75;61.62
6833;BME280;3454;42.654;23.378;2023-04-29T06:56:11;64076.84;;;10.79;61.23
6833;BME280;3454;42.654;23.378;2023-04-29T06:58:36;64091.97;;;10.90;61.27
6833;BME280;3454;42.654;23.378;2023-04-29T07:01:02;64091.06;;;10.92;60.96
6833;BME280;3454;42.654;23.378;2023-04-29T07:03:28;64091.63;;;10.92;60.39
6833;BME280;3454;42.654;23.378;2023-04-29T07:05:55;64123.38;;;11.22;59.21
6833;BME280;3454;42.654;23.378;2023-04-29T07:08:20;64104.78;;;11.05;61.13
6833;BME280;3454;42.654;23.378;2023-04-29T07:10:54;64123.94;;;11.22;60.26
6833;BME280;3454;42.654;23.378;2023-04-29T07:13:20;64152.06;;;11.50;60.50
6833;BME280;3454;42.654;23.378;2023-04-29T07:15:45;64119.53;;;11.18;61.13
6833;BME280;3454;42.654;23.378;2023-04-29T07:18:11;64103.88;;;11.06;62.14
6833;BME280;3454;42.654;23.378;2023-04-29T07:20:36;64099.06;;;10.97;63.69
6833;BME280;3454;42.654;23.378;2023-04-29T07:23:01;64126.44;;;11.22;63.57
6833;BME280;3454;42.654;23.378;2023-04-29T07:25:27;64114.06;;;11.13;63.58
6833;BME280;3454;42.654;23.378;2023-04-29T07:27:54;64083.94;;;10.85;63.50
6833;BME280;3454;42.654;23.378;2023-04-29T07:30:20;64172.16;;;11.66;74.28
6833;BME280;3454;42.654;23.378;2023-04-29T07:32:46;64170.50;;;11.65;61.34
6833;BME280;3454;42.654;23.378;2023-04-29T07:35:12;64172.69;;;11.67;59.66
6833;BME280;3454;42.654;23.378;2023-04-29T07:37:37;64174.69;;;11.66;61.38
6833;BME280;3454;42.654;23.378;2023-04-29T07:40:03;64180.59;;;11.76;60.26
6833;BME280;3454;42.654;23.378;2023-04-29T07:42:28;64153.81;;;11.47;59.18
6833;BME280;3454;42.654;23.378;2023-04-29T07:44:54;64134.00;;;11.34;59.31
6833;BME280;3454;42.654;23.378;2023-04-29T07:47:20;64207.22;;;11.99;56.55
6833;BME280;3454;42.654;23.378;2023-04-29T07:49:45;64224.44;;;12.17;56.38
6833;BME280;3454;42.654;23.378;2023-04-29T07:52:10;64226.94;;;12.17;56.55
6833;BME280;3454;42.654;23.378;2023-04-29T07:54:36;64251.06;;;12.39;57.52
6833;BME280;3454;42.654;23.378;2023-04-29T07:57:02;64281.22;;;12.66;57.14
6833;BME280;3454;42.654;23.378;2023-04-29T07:59:29;64300.97;;;12.85;54.26
6833;BME280;3454;42.654;23.378;2023-04-29T08:01:55;64269.38;;;12.58;53.75
6833;BME280;3454;42.654;23.378;2023-04-29T08:04:20;64271.59;;;12.60;54.74
6833;BME280;3454;42.654;23.378;2023-04-29T08:06:45;64297.69;;;12.82;55.23
6833;BME280;3454;42.654;23.378;2023-04-29T08:09:11;64316.00;;;13.01;54.19
6833;BME280;3454;42.654;23.378;2023-04-29T08:11:36;64350.59;;;13.32;54.13
6833;BME280;3454;42.654;23.378;2023-04-29T08:14:04;64367.94;;;13.46;52.36
6833;BME280;3454;42.654;23.378;2023-04-29T08:16:29;64368.16;;;13.48;51.83
6833;BME280;3454;42.654;23.378;2023-04-29T08:18:56;64385.50;;;13.62;50.30
6833;BME280;3454;42.654;23.378;2023-04-29T08:21:21;64408.56;;;13.83;50.63
6833;BME280;3454;42.654;23.378;2023-04-29T08:23:47;64444.25;;;14.16;50.18
6833;BME280;3454;42.654;23.378;2023-04-29T08:26:13;64446.31;;;14.22;48.69
6833;BME280;3454;42.654;23.378;2023-04-29T08:28:39;64453.25;;;14.26;47.98
6833;BME280;3454;42.654;23.378;2023-04-29T08:31:04;64457.47;;;14.28;46.11
6833;BME280;3454;42.654;23.378;2023-04-29T08:33:34;64460.97;;;14.34;45.95
6833;BME280;3454;42.654;23.378;2023-04-29T08:36:01;64449.53;;;14.18;46.88
6833;BME280;3454;42.654;23.378;2023-04-29T08:38:28;64487.91;;;14.58;48.49
6833;BME280;3454;42.654;23.378;2023-04-29T08:40:54;64504.16;;;14.71;48.71
6833;BME280;3454;42.654;23.378;2023-04-29T08:43:21;64539.34;;;15.03;47.70
6833;BME280;3454;42.654;23.378;2023-04-29T08:45:50;64563.53;;;15.25;45.89
6833;BME280;3454;42.654;23.378;2023-04-29T08:48:16;64542.09;;;15.05;43.83
6833;BME280;3454;42.654;23.378;2023-04-29T08:50:43;64523.59;;;14.91;42.86
6833;BME280;3454;42.654;23.378;2023-04-29T08:53:10;64518.13;;;14.86;44.50
6833;BME280;3454;42.654;23.378;2023-04-29T08:55:40;64531.09;;;14.95;43.86
6833;BME280;3454;42.654;23.378;2023-04-29T08:58:06;64540.31;;;15.08;43.63
6833;BME280;3454;42.654;23.378;2023-04-29T09:00:33;64575.28;;;15.38;43.21
6833;BME280;3454;42.654;23.378;2023-04-29T09:03:00;64584.31;;;15.49;41.08
6833;BME280;3454;42.654;23.378;2023-04-29T09:05:29;64567.56;;;15.31;41.97
6833;BME280;3454;42.654;23.378;2023-04-29T09:07:56;64579.47;;;15.40;43.46
6833;BME280;3454;42.654;23.378;2023-04-29T09:10:27;64598.41;;;15.59;44.75
6833;BME280;3454;42.654;23.378;2023-04-29T09:12:55;64595.22;;;15.52;44.45
6833;BME280;3454;42.654;23.378;2023-04-29T09:15:37;64589.06;;;15.51;43.28
6833;BME280;3454;42.654;23.378;2023-04-29T09:21:34;64602.59;;;15.61;44.09
6833;BME280;3454;42.654;23.378;2023-04-29T09:24:01;64670.25;;;16.23;44.91
6833;BME280;3454;42.654;23.378;2023-04-29T09:26:35;64716.72;;;16.67;42.03
6833;BME280;3454;42.654;23.378;2023-04-29T09:31:30;64746.47;;;16.95;39.85
6833;BME280;3454;42.654;23.378;2023-04-29T09:33:56;64715.97;;;16.64;39.95
6833;BME280;3454;42.654;23.378;2023-04-29T09:39:02;64702.97;;;16.55;39.31
6833;BME280;3454;42.654;23.378;2023-04-29T09:41:30;64709.34;;;16.58;40.07
6833;BME280;3454;42.654;23.378;2023-04-29T09:44:05;64674.88;;;16.29;38.55
6833;BME280;3454;42.654;23.378;2023-04-29T09:46:34;64633.06;;;15.91;41.82
6833;BME280;3454;42.654;23.378;2023-04-29T09:49:21;64674.13;;;16.26;39.55
6833;BME280;3454;42.654;23.378;2023-04-29T09:51:52;64669.19;;;16.22;39.64
6833;BME280;3454;42.654;23.378;2023-04-29T09:54:22;64677.09;;;16.31;39.12
6833;BME280;3454;42.654;23.378;2023-04-29T09:56:51;64703.31;;;16.53;38.80
6833;BME280;3454;42.654;23.378;2023-04-29T09:59:20;64773.09;;;17.21;38.66
6833;BME280;3454;42.654;23.378;2023-04-29T10:01:54;64814.25;;;17.56;37.62
6833;BME280;3454;42.654;23.378;2023-04-29T10:04:21;64791.97;;;17.34;37.87
6833;BME280;3454;42.654;23.378;2023-04-29T10:06:52;64821.94;;;17.63;36.70
6833;BME280;3454;42.654;23.378;2023-04-29T10:09:20;64864.94;;;18.03;38.23
6833;BME280;3454;42.654;23.378;2023-04-29T10:11:47;64883.50;;;18.17;37.21
6833;BME280;3454;42.654;23.378;2023-04-29T10:14:17;64897.47;;;18.32;36.40
6833;BME280;3454;42.654;23.378;2023-04-29T10:16:58;64795.69;;;17.42;35.94
6833;BME280;3454;42.654;23.378;2023-04-29T10:19:46;64772.69;;;17.16;37.64
6833;BME280;3454;42.654;23.378;2023-04-29T10:22:18;64771.59;;;17.15;36.78
6833;BME280;3454;42.654;23.378;2023-04-29T10:24:47;64795.13;;;17.41;36.90
6833;BME280;3454;42.654;23.378;2023-04-29T10:27:14;64786.13;;;17.31;38.40
6833;BME280;3454;42.654;23.378;2023-04-29T10:29:42;64799.34;;;17.43;38.53
6833;BME280;3454;42.654;23.378;2023-04-29T10:32:08;64789.09;;;17.36;39.38
6833;BME280;3454;42.654;23.378;2023-04-29T10:34:36;64826.38;;;17.68;37.59
6833;BME280;3454;42.654;23.378;2023-04-29T10:37:06;64813.47;;;17.53;35.41
6833;BME280;3454;42.654;23.378;2023-04-29T10:39:46;64790.31;;;17.32;36.46
6833;BME280;3454;42.654;23.378;2023-04-29T10:42:53;64825.81;;;17.67;35.93
6833;BME280;3454;42.654;23.378;2023-04-29T10:45:28;64795.28;;;17.37;34.98
6833;BME280;3454;42.654;23.378;2023-04-29T10:53:16;64796.03;;;17.40;35.81
6833;BME280;3454;42.654;23.378;2023-04-29T10:55:46;64809.84;;;17.52;35.78
6833;BME280;3454;42.654;23.378;2023-04-29T10:58:35;64761.91;;;17.09;34.94
6833;BME280;3454;42.654;23.378;2023-04-29T11:01:01;64742.41;;;16.89;35.21
6833;BME280;3454;42.654;23.378;2023-04-29T11:03:47;64723.91;;;16.74;35.31
6833;BME280;3454;42.654;23.378;2023-04-29T11:06:13;64713.75;;;16.62;35.83
6833;BME280;3454;42.654;23.378;2023-04-29T11:08:39;64737.66;;;16.87;36.02
6833;BME280;3454;42.654;23.378;2023-04-29T11:11:06;64740.97;;;16.90;34.63
6833;BME280;3454;42.654;23.378;2023-04-29T11:13:37;64743.72;;;16.92;35.25
6833;BME280;3454;42.654;23.378;2023-04-29T11:16:03;64773.66;;;17.22;36.93
6833;BME280;3454;42.654;23.378;2023-04-29T11:18:29;64791.06;;;17.35;34.79
6833;BME280;3454;42.654;23.378;2023-04-29T11:23:39;64737.13;;;16.86;35.59
6833;BME280;3454;42.654;23.378;2023-04-29T11:26:10;64734.13;;;16.81;35.70
6833;BME280;3454;42.654;23.378;2023-04-29T11:28:35;64739.66;;;16.86;36.14
6833;BME280;3454;42.654;23.378;2023-04-29T11:31:00;64727.53;;;16.75;34.84
6833;BME280;3454;42.654;23.378;2023-04-29T11:33:31;64717.28;;;16.68;35.32
6833;BME280;3454;42.654;23.378;2023-04-29T11:35:57;64724.78;;;16.72;35.74
6833;BME280;3454;42.654;23.378;2023-04-29T11:38:28;64708.81;;;16.58;34.85
6833;BME280;3454;42.654;23.378;2023-04-29T11:40:58;64757.84;;;17.03;55.51
6833;BME280;3454;42.654;23.378;2023-04-29T11:43:24;64758.59;;;17.06;36.32
6833;BME280;3454;42.654;23.378;2023-04-29T11:45:50;64701.88;;;16.54;35.67
6833;BME280;3454;42.654;23.378;2023-04-29T11:48:25;64691.38;;;16.44;36.30
6833;BME280;3454;42.654;23.378;2023-04-29T11:50:57;64651.22;;;16.08;36.12
6833;BME280;3454;42.654;23.378;2023-04-29T11:53:25;64662.00;;;16.15;36.16
6833;BME280;3454;42.654;23.378;2023-04-29T11:55:52;64642.53;;;15.95;36.62
6833;BME280;3454;42.654;23.378;2023-04-29T11:58:20;64639.66;;;15.97;36.68
6833;BME280;3454;42.654;23.378;2023-04-29T12:00:49;64633.75;;;15.87;36.02
6833;BME280;3454;42.654;23.378;2023-04-29T12:03:16;64639.44;;;15.94;37.24
6833;BME280;3454;42.654;23.378;2023-04-29T12:05:46;64637.25;;;15.92;37.77
6833;BME280;3454;42.654;23.378;2023-04-29T12:08:13;64637.47;;;15.95;37.37
6833;BME280;3454;42.654;23.378;2023-04-29T12:10:40;64647.16;;;16.02;37.83
6833;BME280;3454;42.654;23.378;2023-04-29T12:13:05;64645.50;;;16.00;37.34
6833;BME280;3454;42.654;23.378;2023-04-29T12:15:31;64651.75;;;16.08;38.15
6833;BME280;3454;42.654;23.378;2023-04-29T12:17:58;64638.38;;;15.93;39.14
6833;BME280;3454;42.654;23.378;2023-04-29T12:20:30;64623.16;;;15.82;39.32
6833;BME280;3454;42.654;23.378;2023-04-29T12:23:10;64613.25;;;15.73;39.89
6833;BME280;3454;42.654;23.378;2023-04-29T12:25:36;64647.34;;;16.04;40.09
6833;BME280;3454;42.654;23.378;2023-04-29T12:28:01;64650.66;;;16.07;40.10
6833;BME280;3454;42.654;23.378;2023-04-29T12:30:28;64666.97;;;16.20;40.35
6833;BME280;3454;42.654;23.378;2023-04-29T12:32:54;64640.22;;;15.98;39.45
6833;BME280;3454;42.654;23.378;2023-04-29T12:35:26;64627.56;;;15.86;39.46
6833;BME280;3454;42.654;23.378;2023-04-29T12:37:51;64651.22;;;16.08;39.30
6833;BME280;3454;42.654;23.378;2023-04-29T12:40:17;64657.06;;;16.11;39.57
6833;BME280;3454;42.654;23.378;2023-04-29T12:42:44;64644.41;;;15.99;39.77
6833;BME280;3454;42.654;23.378;2023-04-29T12:45:29;64636.69;;;15.92;40.67
6833;BME280;3454;42.654;23.378;2023-04-29T12:47:56;64635.25;;;15.93;41.45
6833;BME280;3454;42.654;23.378;2023-04-29T12:50:33;64769.38;;;17.13;51.84
6833;BME280;3454;42.654;23.378;2023-04-29T12:52:59;64708.47;;;16.60;40.88
6833;BME280;3454;42.654;23.378;2023-04-29T12:55:25;64679.28;;;16.33;40.56
6833;BME280;3454;42.654;23.378;2023-04-29T12:57:50;64705.50;;;16.55;40.64
6833;BME280;3454;42.654;23.378;2023-04-29T13:00:16;64705.72;;;16.57;40.42
6833;BME280;3454;42.654;23.378;2023-04-29T13:02:45;64706.06;;;16.55;40.50
6833;BME280;3454;42.654;23.378;2023-04-29T13:05:11;64691.38;;;16.44;40.33
6833;BME280;3454;42.654;23.378;2023-04-29T13:07:37;64678.50;;;16.30;40.58
6833;BME280;3454;42.654;23.378;2023-04-29T13:10:04;64686.22;;;16.37;41.22
6833;BME280;3454;42.654;23.378;2023-04-29T13:12:31;64706.41;;;16.53;41.11
6833;BME280;3454;42.654;23.378;2023-04-29T13:14:56;64709.34;;;16.58;40.55
6833;BME280;3454;42.654;23.378;2023-04-29T13:17:22;64702.41;;;16.54;40.84
6833;BME280;3454;42.654;23.378;2023-04-29T13:19:48;64737.66;;;16.87;41.38
6833;BME280;3454;42.654;23.378;2023-04-29T13:22:15;64720.59;;;16.71;41.44
6833;BME280;3454;42.654;23.378;2023-04-29T13:24:40;64713.75;;;16.62;41.77
6833;BME280;3454;42.654;23.378;2023-04-29T13:27:06;64700.03;;;16.50;42.49
6833;BME280;3454;42.654;23.378;2023-04-29T13:29:31;64712.53;;;16.66;41.96
6833;BME280;3454;42.654;23.378;2023-04-29T13:31:56;64758.03;;;17.05;42.62
6833;BME280;3454;42.654;23.378;2023-04-29T13:34:22;64753.63;;;17.01;41.49
6833;BME280;3454;42.654;23.378;2023-04-29T13:36:47;64743.16;;;16.92;41.63
6833;BME280;3454;42.654;23.378;2023-04-29T13:39:13;64776.91;;;17.18;41.88
6833;BME280;3454;42.654;23.378;2023-04-29T13:41:38;64759.13;;;17.06;41.35
6833;BME280;3454;42.654;23.378;2023-04-29T13:44:04;64759.13;;;17.06;42.19
6833;BME280;3454;42.654;23.378;2023-04-29T13:46:29;64764.09;;;17.11;42.03
6833;BME280;3454;42.654;23.378;2023-04-29T13:48:57;64785.56;;;17.30;42.03